Terminal Aerodrome Forecast
Issued by NWS

Home | Current Version | Previous Version | Text Only | Print | Product List | Glossary On
Versions: 1 2 3 4 5 6 7 8 9 10 11 12 13 14 15 16 17 18 19 20
000
FTUS43 KDLH 211143 AAA
TAFHIB
TAF AMD
KHIB 211143Z 2112/2212 31006KT P6SM FEW060
      TEMPO 2112/2113 1/4SM FG
     FM211500 32010G17KT P6SM SKC
     FM220100 VRB03KT P6SM SCT100
     FM220600 VRB03KT P6SM BKN100 WS020/24030KT=

USA.gov is the U.S. government's official web portal to all federal, state and local government web resources and services.